Flight Track Log - Related Links

Times and Time Zones

All times are in EST time to prevent confusion due to time zone crossing. See the ACA1737 flight status page for this flight to view local times or setup timezone preferences in your user account.

Time Position Orientation Groundspeed Altitude Reporting Facility
EST Latitude Longitude Course Direction KTS MPH feet Rate Location/Type
Sat 05:47:00 PM 21.6294 -87.0288 347° North  Level Estimated
Sat 05:48:00 PM 21.7480 -87.0593 347° North  Level Estimated
Sat 05:49:00 PM 21.8666 -87.0899 347° North  Level Estimated
Sat 05:50:00 PM 21.9851 -87.1205 347° North  Level Estimated
Sat 05:51:00 PM 22.1037 -87.1512 347° North  Level Estimated
Sat 05:52:00 PM 22.2222 -87.1819 347° North  Level Estimated
Sat 05:53:00 PM 22.3408 -87.2126 347° North  Level Estimated
Sat 05:54:00 PM 22.4593 -87.2434 346° North  Level Estimated
Sat 05:55:00 PM 22.5778 -87.2743 346° North  Level Estimated
Sat 05:56:00 PM 22.6964 -87.3052 346° North  Level Estimated
Sat 05:57:00 PM 22.8149 -87.3362 346° North  Level Estimated
Sat 05:58:00 PM 22.9334 -87.3672 346° North  Level Estimated
Sat 05:59:00 PM 23.0519 -87.3983 346° North  Level Estimated
Sat 06:00:00 PM 23.1704 -87.4294 346° North  Level Estimated
Sat 06:01:00 PM 23.2889 -87.4606 346° North  Level Estimated
Sat 06:02:00 PM 23.4074 -87.4918 346° North  Level Estimated
Sat 06:03:00 PM 23.5258 -87.5231 346° North  Level Estimated
Sat 06:04:00 PM 23.6443 -87.5545 346° North  Level Estimated
Sat 06:05:00 PM 23.7628 -87.5859 346° North  Level Estimated
Sat 06:06:00 PM 23.8812 -87.6174 346° North  Level Estimated
Sat 06:07:00 PM 23.9997 -87.6489 346° North  Level Estimated
Sat 06:08:00 PM 24.1181 -87.6805 346° North  Level Estimated
Sat 06:09:00 PM 24.2366 -87.7121 346° North  Level Estimated
Sat 06:10:00 PM 24.3550 -87.7438 346° North  Level Estimated
Sat 06:11:00 PM 24.4734 -87.7756 346° North  Level Estimated
Sat 06:12:00 PM 24.5919 -87.8074 346° North  Level Estimated
Sat 06:13:00 PM 24.7103 -87.8393 346° North  Level Estimated
Sat 06:14:00 PM 24.8287 -87.8712 346° North  Level Estimated
Sat 06:15:00 PM 24.9471 -87.9032 346° North  Level Estimated
Sat 06:16:00 PM 25.0655 -87.9353 346° North  Level Estimated
Sat 06:17:00 PM 25.1839 -87.9674 346° North  Level Estimated
Sat 06:18:00 PM 25.3022 -87.9996 346° North  Level Estimated
Sat 06:19:00 PM 25.4206 -88.0319 346° North  Level Estimated
Sat 06:20:00 PM 25.5390 -88.0642 346° North  Level Estimated
Sat 06:21:00 PM 25.6573 -88.0966 346° North  Level Estimated
Sat 06:22:00 PM 25.7757 -88.1290 346° North  Level Estimated
Sat 06:23:00 PM 25.8940 -88.1615 346° North  Level Estimated
Sat 06:24:00 PM 26.0124 -88.1941 346° North  Level Estimated
Sat 06:25:00 PM 26.1307 -88.2267 346° North  Level Estimated
Sat 06:26:00 PM 26.2490 -88.2595 346° North  Level Estimated
Sat 06:27:00 PM 26.3673 -88.2922 346° North  Level Estimated
Sat 06:28:00 PM 26.4856 -88.3251 346° North  Level Estimated
Sat 06:29:00 PM 26.6039 -88.3580 346° North  Level Estimated
Sat 06:30:00 PM 26.7222 -88.3910 346° North  Level Estimated
Sat 06:31:00 PM 26.8405 -88.4240 346° North  Level Estimated
Sat 06:32:00 PM 26.9588 -88.4571 346° North  Level Estimated
Sat 06:33:00 PM 27.0771 -88.4903 346° North  Level Estimated
Sat 06:34:00 PM 27.1953 -88.5235 346° North  Level Estimated
Sat 06:35:00 PM 27.3136 -88.5569 346° North  Level Estimated
Sat 06:36:00 PM 27.4318 -88.5903 346° North  Level Estimated
Sat 06:37:00 PM 27.5501 -88.6237 346° North  Level Estimated
Sat 06:38:00 PM 27.6683 -88.6573 346° North  Level Estimated
Sat 06:39:00 PM 27.7865 -88.6909 346° North  Level Estimated
Sat 06:39:44 PM 26.7967 -89.1119 346° North 417 480 32,000  Level Houston Center
Sat 06:40:00 PM 27.9047 -88.7246 346° North  Level Estimated
Sat 06:40:45 PM 26.9283 -89.1667 340° North 420 483 32,000  Level Houston Center
Sat 06:41:00 PM 28.0229 -88.7583 346° North  Level Estimated
Sat 06:41:47 PM 27.0394 -89.2047 343° North 418 481 31,900  Level Houston Center
Sat 06:42:00 PM 28.1411 -88.7922 346° North  Level Estimated
Sat 06:42:49 PM 27.1503 -89.2433 343° North 418 481 31,900  Level Houston Center
Sat 06:43:00 PM 28.2593 -88.8261 346° North  Level Estimated
Sat 06:43:50 PM 27.2603 -89.2944 338° Northwest 420 483 32,000  Level Houston Center
Sat 06:44:00 PM 28.3775 -88.8600 346° North  Level Estimated
Sat 06:44:52 PM 27.3689 -89.3478 336° Northwest 422 486 32,000  Level Houston Center
Sat 06:45:54 PM 27.4783 -89.3903 341° North 420 483 32,000 -49 Level Houston Center
Sat 06:46:55 PM 27.5881 -89.4308 342° North 418 481 31,900 -49 Descending Houston Center
Sat 06:47:57 PM 27.7175 -89.4886 338° Northwest 416 479 31,900  Level Houston Center
Sat 06:48:59 PM 27.8253 -89.5342 340° North 415 478 31,900  Level Houston Center
Sat 06:50:00 PM 27.9336 -89.5786 340° North 414 476 31,900 49 Level Houston Center
Sat 06:51:02 PM 28.0411 -89.6219 340° North 411 473 32,000  Climbing Houston Center
Sat 06:52:03 PM 28.1478 -89.6678 339° North 410 472 31,900 -49 Descending Houston Center
Sat 06:53:05 PM 28.2547 -89.7153 339° North 411 473 31,900 48 Level Houston Center
Sat 06:54:07 PM 28.3628 -89.7597 340° North 412 474 32,000 49 Climbing Houston Center
Sat 06:55:08 PM 28.4931 -89.8136 340° North 415 478 32,000  Level Houston Center
Sat 06:56:10 PM 28.6011 -89.8569 341° North 414 476 32,000 -48 Level Houston Center
Sat 06:57:12 PM 28.7100 -89.9008 341° North 414 476 31,900 -49 Descending Houston Center
Sat 06:58:13 PM 28.8172 -89.9467 339° North 411 473 31,900 49 Level Houston Center
Sat 06:59:15 PM 28.9281 -89.9792 346° North 416 479 32,000 48 Climbing Houston Center
Sat 07:00:17 PM 29.0464 -89.9825 359° North 425 489 32,000 -49 Level Houston Center
Sat 07:01:18 PM 29.1628 -89.9836 360° North 418 481 31,900 -49 Descending Houston Center
Sat 07:02:20 PM 29.2792 -89.9869 359° North 418 481 31,900 48 Level Houston Center
Sat 07:03:22 PM 29.4189 -89.9933 358° North 418 481 32,000  Climbing Houston Center
Sat 07:04:23 PM 29.5344 -89.9969 358° North 416 479 31,900 -49 Descending Houston Center
Sat 07:05:25 PM 29.6500 -90.0003 359° North 415 478 31,900  Level Houston Center
Sat 07:06:26 PM 29.7658 -90.0022 359° North 415 478 31,900 49 Level Houston Center
Sat 07:07:28 PM 29.8822 -90.0047 359° North 417 480 32,000 49 Climbing Houston Center
Sat 07:08:29 PM 29.9975 -90.0075 359° North 413 475 32,000 -49 Level Houston Center
Sat 07:09:31 PM 30.1131 -90.0097 359° North 413 475 31,900  Descending Houston Center
Sat 07:10:33 PM 30.2281 -90.0139 358° North 410 472 32,000 49 Climbing Houston Center
Sat 07:11:34 PM 30.3444 -90.0172 359° North 410 472 32,000  Level Houston Center
Sat 07:12:36 PM 30.4600 -90.0192 359° North 409 471 32,000 49 Level Houston Center
Sat 07:13:37 PM 30.5969 -90.0228 359° North 406 467 32,100 537 Climbing Houston Center
Sat 07:14:39 PM 30.7108 -90.0256 359° North 407 468 33,100 732 Climbing Houston Center
Sat 07:15:40 PM 30.8233 -90.0281 359° North 403 464 33,600 390 Climbing Houston Center
Sat 07:16:42 PM 30.9369 -90.0311 359° North 407 468 33,900 146 Climbing Houston Center
Sat 07:17:43 PM 31.0475 -90.0344 359° North 400 460 33,900 49 Level Houston Center
Sat 07:18:45 PM 31.1597 -90.0372 359° North 399 459 34,000 48 Climbing Houston Center
Sat 07:19:47 PM 31.2719 -90.0394 359° North 402 463 34,000  Level Houston Center
Sat 07:20:48 PM 31.3819 -90.0422 359° North 398 458 34,000  Level Houston Center
Sat 07:21:50 PM 31.5150 -90.0478 358° North 397 457 34,000  Level Houston Center
Sat 07:22:51 PM 31.6244 -90.0522 358° North 394 453 34,000 -49 Level Houston Center
Sat 07:23:53 PM 31.7333 -90.0561 358° North 394 453 33,900 -48 Descending Houston Center
Sat 07:24:55 PM 31.8425 -90.0614 358° North 392 451 33,900 49 Level Houston Center
Sat 07:25:56 PM 31.9522 -90.0644 359° North 393 452 34,000 49 Climbing Houston Center
Sat 07:26:58 PM 32.0633 -90.0656 360° North 397 457 34,000  Level Houston Center
Sat 07:27:59 PM 32.1733 -90.0678 359° North 397 457 34,000  Level Houston Center
Sat 07:29:01 PM 32.2831 -90.0711 359° North 394 453 34,000  Level Houston Center
Sat 07:30:03 PM 32.4114 -90.0733 359° North 394 453 34,000  Level Houston Center
Sat 07:31:04 PM 32.5211 -90.0764 359° North 393 452 34,000  Level Houston Center
Sat 07:32:06 PM 32.6294 -90.0794 359° North 390 449 34,000  Level Houston Center
Sat 07:33:07 PM 32.7372 -90.0831 358° North 388 447 34,000  Level Houston Center
Sat 07:34:35 PM 32.8975 -90.0881 358° North 386 444 34,000  Level Memphis Center
Sat 07:35:36 PM 33.0053 -90.0911 359° North 384 442 34,000  Level Memphis Center
Sat 07:36:38 PM 33.1114 -90.0925 359° North 379 436 34,000  Level Memphis Center
Sat 07:37:39 PM 33.2153 -90.0956 359° North 375 432 34,000  Level Memphis Center
Sat 07:38:40 PM 33.3183 -90.1008 358° North 372 428 34,000  Level Memphis Center
Sat 07:39:41 PM 33.4214 -90.1056 358° North 371 427 34,000  Level Memphis Center
Sat 07:40:43 PM 33.5244 -90.1083 359° North 372 428 34,000  Level Memphis Center
Sat 07:41:44 PM 33.6489 -90.1128 358° North 373 429 34,000  Level Memphis Center
Sat 07:42:45 PM 33.7539 -90.1158 359° North 377 434 34,000  Level Memphis Center
Sat 07:43:46 PM 33.8503 -90.1183 359° North 378 435 34,000 49 Level Memphis Center
Sat 07:44:48 PM 33.9572 -90.1219 358° North 380 437 34,100  Climbing Memphis Center
Sat 07:45:49 PM 34.0650 -90.1256 358° North 381 438 34,000 -49 Descending Memphis Center
Sat 07:46:50 PM 34.1894 -90.1286 359° North 379 436 34,000  Level Memphis Center
Sat 07:47:51 PM 34.2950 -90.1308 359° North 376 433 34,000  Level Memphis Center
Sat 07:48:52 PM 34.4000 -90.1344 358° North 373 429 34,000  Level Memphis Center
Sat 07:49:54 PM 34.5044 -90.1383 358° North 371 427 34,000  Level Memphis Center
Sat 07:50:55 PM 34.6094 -90.1417 359° North 372 428 34,000  Level Memphis Center
Sat 07:51:56 PM 34.7142 -90.1453 358° North 370 426 34,000  Level Memphis Center
Sat 07:52:57 PM 34.8181 -90.1472 359° North 368 423 34,000  Level Memphis Center
Sat 07:53:58 PM 34.9211 -90.1514 358° North 365 420 34,000  Level Memphis Center
Sat 07:54:59 PM 35.0231 -90.1531 359° North 362 417 34,000  Level Memphis Center
Sat 07:56:00 PM 35.1253 -90.1567 358° North 361 415 34,000  Level Memphis Center
Sat 07:57:02 PM 35.2264 -90.1583 359° North 359 413 34,000  Level Memphis Center
Sat 07:58:03 PM 35.3275 -90.1625 358° North 359 413 34,000  Level Memphis Center
Sat 07:59:04 PM 35.4289 -90.1642 359° North 359 413 34,000 -49 Level Memphis Center
Sat 08:00:05 PM 35.5306 -90.1672 359° North 361 415 33,900  Descending Memphis Center
Sat 08:01:06 PM 35.6350 -90.1700 359° North 366 421 34,000 98 Climbing Memphis Center
Sat 08:02:07 PM 35.7319 -90.1736 358° North 372 428 34,100 49 Climbing Memphis Center
Sat 08:03:09 PM 35.8372 -90.1772 358° North 375 432 34,100 -49 Level Memphis Center
Sat 08:04:10 PM 35.9436 -90.1814 358° North 378 435 34,000 -49 Descending Memphis Center
Sat 08:05:11 PM 36.0469 -90.1844 359° North 373 429 34,000  Level Memphis Center
Sat 08:06:12 PM 36.1522 -90.1872 359° North 374 430 34,000  Level Memphis Center
Sat 08:07:13 PM 36.2797 -90.1911 359° North 378 435 34,000  Level Memphis Center
Sat 08:08:14 PM 36.3858 -90.1947 358° North 379 436 34,000 49 Level Memphis Center
Sat 08:09:15 PM 36.4911 -90.1975 359° North 377 434 34,100 878 Climbing Memphis Center
Sat 08:10:17 PM 36.5953 -90.2006 359° North 375 432 35,800 927 Climbing Memphis Center
Sat 08:11:18 PM 36.6883 -90.2044 358° North 344 396 36,000 98 Climbing Memphis Center
Sat 08:12:19 PM 36.7828 -90.2081 358° North 338 389 36,000  Level Memphis Center
Sat 08:13:34 PM 36.9014 -90.2128 358° North 346 398 36,000  Level Kansas City Center
Sat 08:14:35 PM 36.9981 -90.2158 359° North 345 397 36,000  Level Kansas City Center
Sat 08:15:34 PM 37.0944 -90.2183 359° North 344 396 36,000  Level Kansas City Center
Sat 08:16:37 PM 37.1908 -90.2208 359° North 344 396 36,000  Level Kansas City Center
Sat 08:17:39 PM 37.2853 -90.2242 358° North 341 392 36,000  Level Kansas City Center
Sat 08:18:40 PM 37.3867 -90.2250 360° North 345 397 36,000  Level Kansas City Center
Sat 08:19:41 PM 37.4831 -90.2267 359° North 346 398 36,000  Level Kansas City Center
Sat 08:20:41 PM 37.5800 -90.2297 359° North 348 400 36,000  Level Kansas City Center
Sat 08:21:44 PM 37.6767 -90.2328 359° North 348 400 36,000  Level Kansas City Center
Sat 08:22:45 PM 37.7681 -90.2511 351° North 337 388 36,000  Level Kansas City Center
Sat 08:23:47 PM 37.8772 -90.2744 350° North 332 382 36,000  Level Kansas City Center
Sat 08:24:45 PM 37.9689 -90.2942 350° North 333 383 36,000  Level Kansas City Center
Sat 08:25:49 PM 38.0606 -90.3122 351° North 335 386 36,000  Level Kansas City Center
Sat 08:26:50 PM 38.1525 -90.3314 351° North 335 386 36,000  Level Kansas City Center
Sat 08:27:50 PM 38.2453 -90.3514 350° North 336 387 36,000  Level Kansas City Center
Sat 08:28:52 PM 38.3381 -90.3711 351° North 336 387 36,000  Level Kansas City Center
Sat 08:29:54 PM 38.4264 -90.4064 343° North 339 390 36,000  Level Kansas City Center
Sat 08:30:54 PM 38.5192 -90.4403 344° North 343 395 36,000  Level Kansas City Center
Sat 08:31:53 PM 38.6111 -90.4747 344° North 342 394 36,000  Level Kansas City Center
Sat 08:32:55 PM 38.7222 -90.5169 343° North 345 397 36,000  Level Kansas City Center
Sat 08:33:57 PM 38.8164 -90.5528 343° North 350 403 36,000  Level Kansas City Center
Sat 08:34:59 PM 38.9131 -90.5900 343° North 356 410 36,000 50 Level Kansas City Center
Sat 08:35:58 PM 38.9981 -90.6217 344° North 360 414 36,100  Climbing Kansas City Center
Sat 08:37:02 PM 39.0942 -90.6572 344° North 359 413 36,000 -48 Descending Kansas City Center
Sat 08:38:02 PM 39.1900 -90.6942 343° North 360 414 36,000  Level Kansas City Center
Sat 08:39:04 PM 39.3056 -90.7367 344° North 360 414 36,000  Level Kansas City Center
Sat 08:40:03 PM 39.4028 -90.7744 343° North 363 418 36,000  Level Kansas City Center
Sat 08:41:05 PM 39.5014 -90.8114 344° North 367 422 36,000  Level Kansas City Center
Sat 08:42:06 PM 39.6006 -90.8494 344° North 370 426 36,000  Level Kansas City Center
Sat 08:43:09 PM 39.6983 -90.8861 344° North 368 423 36,000  Level Kansas City Center
Sat 08:44:10 PM 39.8014 -90.9278 343° North 366 421 36,000  Level Kansas City Center
Sat 08:45:11 PM 39.8997 -90.9664 343° North 367 422 36,000  Level Kansas City Center
Sat 08:46:13 PM 39.9892 -91.0017 343° North 367 422 36,000  Level Kansas City Center
Sat 08:47:14 PM 40.0864 -91.0400 343° North 367 422 36,000  Level Kansas City Center
Sat 08:48:15 PM 40.2050 -91.0867 343° North 371 427 36,000  Level Kansas City Center
Sat 08:49:16 PM 40.2947 -91.1222 343° North 371 427 36,000  Level Kansas City Center
Sat 08:50:18 PM 40.3944 -91.1608 344° North 371 427 36,000  Level Kansas City Center
Sat 08:51:16 PM 40.4947 -91.2008 343° North 373 429 36,000  Level Kansas City Center
Sat 08:52:17 PM 40.5942 -91.2400 343° North 374 430 36,000  Level Kansas City Center
Sat 08:53:17 PM 40.6964 -91.2814 343° North 376 433 36,000  Level Chicago Center
Sat 08:54:18 PM 40.7969 -91.3228 343° North 370 426 36,000  Level Chicago Center
Sat 08:55:19 PM 40.8969 -91.3636 343° North 375 432 36,000  Level Chicago Center
Sat 08:56:20 PM 40.9961 -91.4028 343° North 375 432 36,000  Level Chicago Center
Sat 08:57:20 PM 41.0961 -91.4442 343° North 375 432 36,000  Level Chicago Center
Sat 08:58:21 PM 41.2181 -91.4931 343° North 380 437 36,000  Level Chicago Center
Sat 08:59:22 PM 41.3164 -91.5328 343° North 381 438 36,000  Level Chicago Center
Sat 09:00:23 PM 41.4172 -91.5753 342° North 382 440 36,000  Level Chicago Center
Sat 09:01:24 PM 41.5183 -91.6169 343° North 382 440 36,000  Level Chicago Center
Sat 09:02:25 PM 41.6206 -91.6569 344° North 383 441 36,000  Level Chicago Center
Sat 09:03:26 PM 41.7228 -91.7000 343° North 385 443 36,000  Level Chicago Center
Sat 09:04:27 PM 41.8247 -91.7436 342° North 387 445 36,000  Level Chicago Center
Sat 09:05:28 PM 41.9258 -91.7883 342° North 385 443 36,000  Level Chicago Center
Sat 09:06:29 PM 42.0281 -91.8294 343° North 383 441 36,000  Level Chicago Center
Sat 09:07:30 PM 42.1519 -91.8831 342° North 389 448 36,000  Level Chicago Center
Sat 09:08:31 PM 42.2539 -91.9264 343° North 386 444 36,000  Level Chicago Center
Sat 09:09:32 PM 42.3567 -91.9689 343° North 384 442 36,000  Level Chicago Center
Sat 09:10:33 PM 42.4594 -92.0119 343° North 386 444 36,000  Level Chicago Center
Sat 09:11:34 PM 42.5603 -92.0567 342° North 382 440 36,000  Level Chicago Center
Sat 09:12:35 PM 42.6619 -92.1006 342° North 381 438 36,000  Level Chicago Center
Sat 09:13:36 PM 42.7631 -92.1450 342° North 381 438 36,000  Level Chicago Center
Sat 09:14:37 PM 42.8644 -92.1892 342° North 382 440 36,000  Level Chicago Center
Sat 09:15:38 PM 42.9647 -92.2333 342° North 379 436 36,000  Level Chicago Center
Sat 09:16:39 PM 43.0672 -92.2797 342° North 384 442 36,000  Level Chicago Center
Sat 09:17:40 PM 43.1703 -92.3247 342° North 389 448 36,000  Level Chicago Center
Sat 09:18:41 PM 43.2736 -92.3694 343° North 389 448 36,000  Level Chicago Center
Sat 09:19:42 PM 43.3769 -92.4158 342° North 391 450 36,000  Level Chicago Center
Sat 09:20:43 PM 43.4797 -92.4619 342° North 390 449 36,000  Level Chicago Center
Sat 09:21:44 PM 43.6044 -92.5175 342° North 393 452 36,000  Level Chicago Center
Sat 09:22:45 PM 43.7083 -92.5631 342° North 393 452 36,000  Level Chicago Center
Sat 09:23:46 PM 43.8100 -92.6103 341° North 390 449 36,000  Level Chicago Center
Sat 09:24:47 PM 43.8997 -92.6608 338° Northwest 391 450 36,000  Level Chicago Center
Sat 09:25:56 PM 44.0331 -92.7367 338° Northwest 393 452 36,000  Level Minneapolis Center
Sat 09:26:57 PM 44.1342 -92.7928 338° Northwest 392 451 36,000  Level Minneapolis Center
Sat 09:27:58 PM 44.2353 -92.8500 338° Northwest 392 451 36,000  Level Minneapolis Center
Sat 09:28:59 PM 44.3364 -92.9072 338° Northwest 393 452 36,000  Level Minneapolis Center
Sat 09:30:00 PM 44.4381 -92.9642 338° Northwest 395 455 36,000  Level Minneapolis Center
Sat 09:31:01 PM 44.5378 -93.0217 338° Northwest 391 450 36,000  Level Minneapolis Center
Sat 09:32:02 PM 44.6383 -93.0800 338° Northwest 392 451 36,000  Level Minneapolis Center
Sat 09:33:03 PM 44.7369 -93.1369 338° Northwest 392 451 36,000  Level Minneapolis Center
Sat 09:34:04 PM 44.8350 -93.1936 338° Northwest 388 447 36,000  Level Minneapolis Center
Sat 09:35:05 PM 44.9506 -93.2572 339° North 389 448 36,000  Level Minneapolis Center
Sat 09:36:06 PM 45.0508 -93.3144 338° Northwest 391 450 36,000  Level Minneapolis Center
Sat 09:37:07 PM 45.1508 -93.3733 337° Northwest 390 449 36,000  Level Minneapolis Center
Sat 09:38:08 PM 45.2525 -93.4278 339° North 393 452 36,000  Level Minneapolis Center
Sat 09:39:09 PM 45.3539 -93.4814 340° North 391 450 36,000  Level Minneapolis Center
Sat 09:40:10 PM 45.4558 -93.5378 339° North 393 452 36,000  Level Minneapolis Center
Sat 09:41:11 PM 45.5578 -93.5944 339° North 392 451 36,000  Level Minneapolis Center
Sat 09:42:12 PM 45.6592 -93.6503 339° North 392 451 36,000  Level Minneapolis Center
Sat 09:43:13 PM 45.7606 -93.7064 339° North 392 451 36,000  Level Minneapolis Center
Sat 09:44:14 PM 45.8817 -93.7728 339° North 389 448 36,000  Level Minneapolis Center
Sat 09:45:15 PM 45.9828 -93.8267 340° North 389 448 36,000  Level Minneapolis Center
Sat 09:46:16 PM 46.0833 -93.8811 339° North 388 447 36,000  Level Minneapolis Center
Sat 09:47:17 PM 46.1833 -93.9383 338° Northwest 387 445 36,000 -49 Level Minneapolis Center
Sat 09:48:18 PM 46.2806 -93.9917 339° North 389 448 35,900 -49 Descending Minneapolis Center
Sat 09:49:19 PM 46.3811 -94.0467 339° North 388 447 35,900 49 Level Minneapolis Center
Sat 09:50:20 PM 46.4836 -94.0986 341° North 390 449 36,000 49 Climbing Minneapolis Center
Sat 09:51:21 PM 46.5858 -94.1519 340° North 390 449 36,000  Level Minneapolis Center
Sat 09:52:22 PM 46.6875 -94.2061 340° North 389 448 36,000 -49 Level Minneapolis Center
Sat 09:53:23 PM 46.7892 -94.2611 340° North 390 449 35,900 -49 Descending Minneapolis Center
Sat 09:54:24 PM 46.9100 -94.3256 340° North 386 444 35,900  Level Minneapolis Center
Sat 09:55:25 PM 47.0100 -94.3797 340° North 384 442 35,900 49 Level Minneapolis Center
Sat 09:56:26 PM 47.1103 -94.4344 340° North 385 443 36,000 49 Climbing Minneapolis Center
Sat 09:57:27 PM 47.2114 -94.4883 340° North 385 443 36,000  Level Minneapolis Center
Sat 09:58:28 PM 47.3119 -94.5433 340° North 385 443 36,000 -49 Level Minneapolis Center
Sat 09:59:29 PM 47.4114 -94.5967 340° North 383 441 35,900 -49 Descending Minneapolis Center
Sat 10:00:30 PM 47.5106 -94.6506 340° North 380 437 35,900 49 Level Minneapolis Center
Sat 10:01:31 PM 47.6083 -94.7050 339° North 377 434 36,000  Climbing Minneapolis Center
Sat 10:02:32 PM 47.7053 -94.7586 340° North 374 430 35,900 -49 Descending Minneapolis Center
Sat 10:03:33 PM 47.8025 -94.8142 339° North 374 430 35,900 49 Level Minneapolis Center
Sat 10:04:34 PM 47.9014 -94.8686 340° North 377 434 36,000 49 Climbing Minneapolis Center
Sat 10:05:35 PM 48.0000 -94.9242 339° North 378 435 36,000  Level Minneapolis Center
Sat 10:06:36 PM 48.0986 -94.9797 339° North 378 435 36,000 -49 Level Minneapolis Center
Sat 10:07:37 PM 48.1972 -95.0347 340° North 378 435 35,900 -49 Descending Minneapolis Center
Sat 10:08:38 PM 48.2953 -95.0900 339° North 378 435 35,900 49 Level Minneapolis Center
Sat 10:09:39 PM 48.4144 -95.1572 339° North 380 437 36,000 49 Climbing Minneapolis Center
Sat 10:10:40 PM 48.5131 -95.2139 339° North 380 437 36,000  Level Minneapolis Center
Sat 10:11:41 PM 48.6114 -95.2703 339° North 380 437 36,000 -49 Level Minneapolis Center
Sat 10:12:42 PM 48.7092 -95.3267 339° North 378 435 35,900 -49 Descending Minneapolis Center
Sat 10:13:43 PM 48.8058 -95.3847 338° Northwest 375 432 35,900 -49 Level Minneapolis Center
Sat 10:14:44 PM 48.9025 -95.4400 339° North 374 430 35,800 -443 Descending Minneapolis Center
Sat 10:15:45 PM 48.9969 -95.4925 340° North 367 422 35,000 -1,289 Descending Minneapolis Center
Sat 10:17:13 PM 49.1167 -95.5667 338° Northwest 350 403 32,600 -1,986 Descending Winnipeg Center
Sat 10:18:13 PM 49.1833 -95.6333 327° Northwest 330 380 30,100 -2,450 Descending Winnipeg Center
Sat 10:19:13 PM 49.2500 -95.7333 316° Northwest 330 380 27,700 -2,200 Descending Winnipeg Center
Sat 10:20:13 PM 49.3167 -95.8333 316° Northwest 320 368 25,700 -2,000 Descending Winnipeg Center
Sat 10:21:13 PM 49.3667 -95.9333 308° West 310 357 23,700 -1,950 Descending Winnipeg Center
Sat 10:22:13 PM 49.4167 -96.0333 308° West 300 345 21,800 -2,200 Descending Winnipeg Center
Sat 10:23:13 PM 49.4667 -96.1500 303° West 300 345 19,300 -2,550 Descending Winnipeg Center
Sat 10:24:13 PM 49.5167 -96.2667 303° West 310 357 16,700 -2,550 Descending Winnipeg Center
Sat 10:25:13 PM 49.5500 -96.4000 291° West 320 368 14,200 -2,850 Descending Winnipeg Center
Sat 10:26:13 PM 49.6000 -96.5333 300° West 330 380 11,000 -2,100 Descending Winnipeg Center
Sat 10:27:13 PM 49.6333 -96.6333 297° West 300 345 10,000 -1,700 Descending Winnipeg Center
Sat 10:28:13 PM 49.6667 -96.7333 297° West 260 299 7,600 -2,500 Descending Winnipeg Center
Sat 10:29:13 PM 49.7000 -96.8333 297° West 260 299 5,000 -2,100 Descending Winnipeg Center
Sat 10:30:13 PM 49.7333 -96.9333 297° West 260 299 3,400 -1,000 Descending Winnipeg Center
Sat 10:31:13 PM 49.7667 -97.0167 302° West 220 253 3,000 -200 Descending Winnipeg Center
Sat 10:32:13 PM 49.7833 -97.1000 287° West 190 219 3,000 -300 Level Winnipeg Center
Sat 10:33:13 PM 49.8333 -97.1500 327° Northwest 170 196 2,400 -700 Descending Winnipeg Center
Sat 10:34:13 PM 49.8500 -97.1667 327° Northwest 140 161 1,600 -800 Descending Winnipeg Center
Sat 10:35:13 PM 49.8833 -97.2333 308° West 120 138 800 -800 Descending Winnipeg Center

Login

Don't have an account? Register now (free) for customized features, flight alerts, and more!